sensor_id;sensor_type;location;lat;lon;timestamp;temperature;humidity
23801;DHT22;12081;48.614;10.226;2023-02-01T00:02:21;1.00;99.90
23801;DHT22;12081;48.614;10.226;2023-02-01T00:05:10;0.90;99.90
23801;DHT22;12081;48.614;10.226;2023-02-01T00:07:54;0.90;99.90
23801;DHT22;12081;48.614;10.226;2023-02-01T00:10:39;0.90;99.90
23801;DHT22;12081;48.614;10.226;2023-02-01T00:13:23;1.00;99.90
23801;DHT22;12081;48.614;10.226;2023-02-01T00:16:17;0.90;99.90
23801;DHT22;12081;48.614;10.226;2023-02-01T00:19:04;1.00;99.90
23801;DHT22;12081;48.614;10.226;2023-02-01T00:21:49;1.00;99.90
23801;DHT22;12081;48.614;10.226;2023-02-01T00:24:34;1.10;99.90
23801;DHT22;12081;48.614;10.226;2023-02-01T00:27:18;3.90;99.90
23801;DHT22;12081;48.614;10.226;2023-02-01T00:30:05;1.10;99.90
23801;DHT22;12081;48.614;10.226;2023-02-01T00:32:50;1.10;99.90
23801;DHT22;12081;48.614;10.226;2023-02-01T00:35:35;1.10;99.90
23801;DHT22;12081;48.614;10.226;2023-02-01T00:38:19;3.10;99.90
23801;DHT22;12081;48.614;10.226;2023-02-01T00:43:54;1.20;99.90
23801;DHT22;12081;48.614;10.226;2023-02-01T00:46:39;1.20;99.90
23801;DHT22;12081;48.614;10.226;2023-02-01T00:49:24;1.30;99.90
23801;DHT22;12081;48.614;10.226;2023-02-01T00:52:08;1.30;99.90
23801;DHT22;12081;48.614;10.226;2023-02-01T00:54:53;1.30;99.90
23801;DHT22;12081;48.614;10.226;2023-02-01T00:57:37;1.40;99.90
23801;DHT22;12081;48.614;10.226;2023-02-01T01:00:22;2.10;99.90
23801;DHT22;12081;48.614;10.226;2023-02-01T01:03:06;1.40;99.90
23801;DHT22;12081;48.614;10.226;2023-02-01T01:06:04;1.40;99.90
23801;DHT22;12081;48.614;10.226;2023-02-01T01:08:53;1.50;99.90
23801;DHT22;12081;48.614;10.226;2023-02-01T01:11:39;1.50;99.90
23801;DHT22;12081;48.614;10.226;2023-02-01T01:14:24;1.60;99.90
23801;DHT22;12081;48.614;10.226;2023-02-01T01:17:08;1.60;99.90
23801;DHT22;12081;48.614;10.226;2023-02-01T01:19:53;1.60;99.90
23801;DHT22;12081;48.614;10.226;2023-02-01T01:22:37;1.70;99.90
23801;DHT22;12081;48.614;10.226;2023-02-01T01:25:22;3.70;99.90
23801;DHT22;12081;48.614;10.226;2023-02-01T01:28:07;1.60;99.90
23801;DHT22;12081;48.614;10.226;2023-02-01T01:30:51;1.60;99.90
23801;DHT22;12081;48.614;10.226;2023-02-01T01:33:36;1.60;99.90
23801;DHT22;12081;48.614;10.226;2023-02-01T01:36:21;1.60;99.90
23801;DHT22;12081;48.614;10.226;2023-02-01T01:39:06;1.60;99.90
23801;DHT22;12081;48.614;10.226;2023-02-01T01:41:51;1.60;99.90
23801;DHT22;12081;48.614;10.226;2023-02-01T01:45:00;1.60;99.90
23801;DHT22;12081;48.614;10.226;2023-02-01T01:47:50;1.60;99.90
23801;DHT22;12081;48.614;10.226;2023-02-01T01:50:53;2.60;99.90
23801;DHT22;12081;48.614;10.226;2023-02-01T01:53:45;1.70;99.90
23801;DHT22;12081;48.614;10.226;2023-02-01T01:56:33;1.70;99.90
23801;DHT22;12081;48.614;10.226;2023-02-01T01:59:21;1.70;99.90
23801;DHT22;12081;48.614;10.226;2023-02-01T02:02:06;1.70;99.90
23801;DHT22;12081;48.614;10.226;2023-02-01T02:04:50;1.70;99.90
23801;DHT22;12081;48.614;10.226;2023-02-01T02:07:39;1.70;99.90
23801;DHT22;12081;48.614;10.226;2023-02-01T02:10:24;2.10;99.90
23801;DHT22;12081;48.614;10.226;2023-02-01T02:13:42;1.80;99.90
23801;DHT22;12081;48.614;10.226;2023-02-01T02:16:44;1.80;99.90
23801;DHT22;12081;48.614;10.226;2023-02-01T02:32:43;1.70;99.90
23801;DHT22;12081;48.614;10.226;2023-02-01T02:36:00;1.70;99.90
23801;DHT22;12081;48.614;10.226;2023-02-01T02:39:12;1.80;99.90
23801;DHT22;12081;48.614;10.226;2023-02-01T02:45:21;1.80;99.90
23801;DHT22;12081;48.614;10.226;2023-02-01T02:48:32;1.80;99.90
23801;DHT22;12081;48.614;10.226;2023-02-01T02:51:27;1.90;99.90
23801;DHT22;12081;48.614;10.226;2023-02-01T06:31:16;1.70;99.90
23801;DHT22;12081;48.614;10.226;2023-02-01T06:34:00;1.70;99.90
23801;DHT22;12081;48.614;10.226;2023-02-01T06:36:44;1.80;99.90
23801;DHT22;12081;48.614;10.226;2023-02-01T06:39:28;1.80;99.90
23801;DHT22;12081;48.614;10.226;2023-02-01T06:42:12;1.80;99.90
23801;DHT22;12081;48.614;10.226;2023-02-01T06:44:56;1.80;99.90
23801;DHT22;12081;48.614;10.226;2023-02-01T06:47:40;1.90;99.90
23801;DHT22;12081;48.614;10.226;2023-02-01T06:50:26;1.90;99.90
23801;DHT22;12081;48.614;10.226;2023-02-01T06:53:11;1.90;99.90
23801;DHT22;12081;48.614;10.226;2023-02-01T06:55:57;1.90;99.90
23801;DHT22;12081;48.614;10.226;2023-02-01T06:58:41;2.00;99.90
23801;DHT22;12081;48.614;10.226;2023-02-01T07:01:25;2.00;99.90
23801;DHT22;12081;48.614;10.226;2023-02-01T07:04:11;2.00;99.90
23801;DHT22;12081;48.614;10.226;2023-02-01T07:06:55;2.00;99.90
23801;DHT22;12081;48.614;10.226;2023-02-01T07:09:39;2.00;99.90
23801;DHT22;12081;48.614;10.226;2023-02-01T07:12:23;2.00;99.90
23801;DHT22;12081;48.614;10.226;2023-02-01T07:15:07;2.00;99.90
23801;DHT22;12081;48.614;10.226;2023-02-01T07:17:54;2.10;99.90
23801;DHT22;12081;48.614;10.226;2023-02-01T07:20:38;2.20;99.90
23801;DHT22;12081;48.614;10.226;2023-02-01T07:23:22;2.50;99.90
23801;DHT22;12081;48.614;10.226;2023-02-01T07:26:10;2.50;99.90
23801;DHT22;12081;48.614;10.226;2023-02-01T07:28:56;2.80;99.90
23801;DHT22;12081;48.614;10.226;2023-02-01T07:31:40;2.90;99.90
23801;DHT22;12081;48.614;10.226;2023-02-01T07:34:24;3.00;99.90
23801;DHT22;12081;48.614;10.226;2023-02-01T07:37:08;3.00;99.90
23801;DHT22;12081;48.614;10.226;2023-02-01T07:39:52;3.00;99.90
23801;DHT22;12081;48.614;10.226;2023-02-01T07:42:36;3.00;99.90
23801;DHT22;12081;48.614;10.226;2023-02-01T07:45:20;3.00;99.90
23801;DHT22;12081;48.614;10.226;2023-02-01T07:48:04;3.00;99.90
23801;DHT22;12081;48.614;10.226;2023-02-01T07:50:52;3.00;99.90
23801;DHT22;12081;48.614;10.226;2023-02-01T07:53:41;3.00;99.90
23801;DHT22;12081;48.614;10.226;2023-02-01T07:56:25;2.90;99.90
23801;DHT22;12081;48.614;10.226;2023-02-01T07:59:09;3.00;99.90
23801;DHT22;12081;48.614;10.226;2023-02-01T08:08:10;3.10;99.90
23801;DHT22;12081;48.614;10.226;2023-02-01T08:11:01;3.10;99.90
23801;DHT22;12081;48.614;10.226;2023-02-01T08:13:47;3.10;99.90
23801;DHT22;12081;48.614;10.226;2023-02-01T08:16:31;3.10;99.90
23801;DHT22;12081;48.614;10.226;2023-02-01T08:19:15;3.10;99.90
23801;DHT22;12081;48.614;10.226;2023-02-01T08:21:59;3.20;99.90
23801;DHT22;12081;48.614;10.226;2023-02-01T08:24:48;3.20;99.90
23801;DHT22;12081;48.614;10.226;2023-02-01T08:27:35;3.20;99.90
23801;DHT22;12081;48.614;10.226;2023-02-01T08:30:20;3.20;99.90
23801;DHT22;12081;48.614;10.226;2023-02-01T08:33:06;3.20;99.90
23801;DHT22;12081;48.614;10.226;2023-02-01T08:35:53;3.20;99.90
23801;DHT22;12081;48.614;10.226;2023-02-01T08:38:39;3.20;99.90
23801;DHT22;12081;48.614;10.226;2023-02-01T08:41:26;3.30;99.90
23801;DHT22;12081;48.614;10.226;2023-02-01T08:44:10;3.30;99.90
23801;DHT22;12081;48.614;10.226;2023-02-01T08:46:54;3.20;99.90
23801;DHT22;12081;48.614;10.226;2023-02-01T08:49:38;3.20;99.90
23801;DHT22;12081;48.614;10.226;2023-02-01T08:52:22;3.20;99.90
23801;DHT22;12081;48.614;10.226;2023-02-01T08:55:07;3.30;99.90
23801;DHT22;12081;48.614;10.226;2023-02-01T08:57:51;3.30;99.90
23801;DHT22;12081;48.614;10.226;2023-02-01T09:00:36;3.30;99.90
23801;DHT22;12081;48.614;10.226;2023-02-01T09:03:20;3.40;99.90
23801;DHT22;12081;48.614;10.226;2023-02-01T09:06:10;3.30;99.90
23801;DHT22;12081;48.614;10.226;2023-02-01T09:08:54;3.40;99.90
23801;DHT22;12081;48.614;10.226;2023-02-01T09:11:39;3.40;99.90
23801;DHT22;12081;48.614;10.226;2023-02-01T09:14:23;3.40;99.90
23801;DHT22;12081;48.614;10.226;2023-02-01T09:17:07;3.40;99.90
23801;DHT22;12081;48.614;10.226;2023-02-01T09:19:51;3.40;99.90
23801;DHT22;12081;48.614;10.226;2023-02-01T09:22:35;3.40;99.90
23801;DHT22;12081;48.614;10.226;2023-02-01T09:25:19;3.50;99.90
23801;DHT22;12081;48.614;10.226;2023-02-01T09:28:04;3.50;99.90
23801;DHT22;12081;48.614;10.226;2023-02-01T09:30:57;3.60;99.90
23801;DHT22;12081;48.614;10.226;2023-02-01T09:33:42;3.70;99.90
23801;DHT22;12081;48.614;10.226;2023-02-01T09:36:26;3.80;99.90
23801;DHT22;12081;48.614;10.226;2023-02-01T09:39:10;3.80;99.90
23801;DHT22;12081;48.614;10.226;2023-02-01T09:45:40;3.90;99.90
23801;DHT22;12081;48.614;10.226;2023-02-01T09:48:32;4.10;99.90
23801;DHT22;12081;48.614;10.226;2023-02-01T09:51:41;4.10;99.90
23801;DHT22;12081;48.614;10.226;2023-02-01T09:54:40;4.20;99.90
23801;DHT22;12081;48.614;10.226;2023-02-01T09:57:32;4.30;99.90
23801;DHT22;12081;48.614;10.226;2023-02-01T10:00:27;4.30;99.90
23801;DHT22;12081;48.614;10.226;2023-02-01T10:03:12;4.40;99.90
23801;DHT22;12081;48.614;10.226;2023-02-01T10:09:04;4.50;99.90
23801;DHT22;12081;48.614;10.226;2023-02-01T10:12:13;4.40;99.90
23801;DHT22;12081;48.614;10.226;2023-02-01T10:21:24;4.20;99.90
23801;DHT22;12081;48.614;10.226;2023-02-01T10:27:13;4.00;99.90
23801;DHT22;12081;48.614;10.226;2023-02-01T10:30:29;4.00;99.90
23801;DHT22;12081;48.614;10.226;2023-02-01T10:33:27;3.90;99.90
23801;DHT22;12081;48.614;10.226;2023-02-01T10:36:40;4.60;99.90
23801;DHT22;12081;48.614;10.226;2023-02-01T10:43:08;3.80;99.90
23801;DHT22;12081;48.614;10.226;2023-02-01T10:45:54;6.60;99.90
23801;DHT22;12081;48.614;10.226;2023-02-01T10:48:38;5.90;99.90
23801;DHT22;12081;48.614;10.226;2023-02-01T10:51:28;5.00;99.90
23801;DHT22;12081;48.614;10.226;2023-02-01T10:54:22;5.30;99.90
23801;DHT22;12081;48.614;10.226;2023-02-01T10:57:25;4.10;99.90
23801;DHT22;12081;48.614;10.226;2023-02-01T11:00:20;4.30;99.90
23801;DHT22;12081;48.614;10.226;2023-02-01T11:07:19;3.80;99.90
23801;DHT22;12081;48.614;10.226;2023-02-01T11:13:56;3.80;99.90
23801;DHT22;12081;48.614;10.226;2023-02-01T11:16:47;3.80;99.90
23801;DHT22;12081;48.614;10.226;2023-02-01T11:19:32;5.10;99.90
23801;DHT22;12081;48.614;10.226;2023-02-01T11:22:17;3.80;99.90
23801;DHT22;12081;48.614;10.226;2023-02-01T11:25:08;3.80;99.90
23801;DHT22;12081;48.614;10.226;2023-02-01T11:27:54;3.90;99.90
23801;DHT22;12081;48.614;10.226;2023-02-01T11:30:43;3.90;99.90
23801;DHT22;12081;48.614;10.226;2023-02-01T11:33:34;5.20;99.90
23801;DHT22;12081;48.614;10.226;2023-02-01T11:36:27;5.30;99.90
23801;DHT22;12081;48.614;10.226;2023-02-01T11:42:15;5.40;99.90
23801;DHT22;12081;48.614;10.226;2023-02-01T11:45:24;4.20;99.90
23801;DHT22;12081;48.614;10.226;2023-02-01T11:48:15;4.20;99.90
23801;DHT22;12081;48.614;10.226;2023-02-01T11:57:22;4.20;99.90
23801;DHT22;12081;48.614;10.226;2023-02-01T12:03:49;4.10;99.90
23801;DHT22;12081;48.614;10.226;2023-02-01T12:10:34;4.00;99.90
23801;DHT22;12081;48.614;10.226;2023-02-01T12:15:48;6.00;99.90
23801;DHT22;12081;48.614;10.226;2023-02-01T12:24:57;4.30;99.90
23801;DHT22;12081;48.614;10.226;2023-02-01T12:43:53;4.20;99.90
23801;DHT22;12081;48.614;10.226;2023-02-01T12:46:52;4.10;99.90
23801;DHT22;12081;48.614;10.226;2023-02-01T12:50:02;4.10;99.90
23801;DHT22;12081;48.614;10.226;2023-02-01T12:52:52;4.10;99.90
23801;DHT22;12081;48.614;10.226;2023-02-01T12:55:48;4.60;99.90
23801;DHT22;12081;48.614;10.226;2023-02-01T12:58:41;4.20;99.90
23801;DHT22;12081;48.614;10.226;2023-02-01T13:01:37;5.00;99.90
23801;DHT22;12081;48.614;10.226;2023-02-01T13:07:53;4.30;99.90
23801;DHT22;12081;48.614;10.226;2023-02-01T13:10:45;4.20;99.90
23801;DHT22;12081;48.614;10.226;2023-02-01T13:13:42;4.20;99.90
23801;DHT22;12081;48.614;10.226;2023-02-01T13:16:35;6.00;99.90
23801;DHT22;12081;48.614;10.226;2023-02-01T13:19:55;4.20;99.90
23801;DHT22;12081;48.614;10.226;2023-02-01T13:22:45;4.20;99.90
23801;DHT22;12081;48.614;10.226;2023-02-01T13:25:52;5.30;99.90
23801;DHT22;12081;48.614;10.226;2023-02-01T13:41:25;3.90;99.90
23801;DHT22;12081;48.614;10.226;2023-02-01T13:44:18;3.90;99.90
23801;DHT22;12081;48.614;10.226;2023-02-01T13:47:18;4.30;99.90
23801;DHT22;12081;48.614;10.226;2023-02-01T13:50:21;3.80;99.90
23801;DHT22;12081;48.614;10.226;2023-02-01T13:56:01;5.30;99.90
23801;DHT22;12081;48.614;10.226;2023-02-01T13:58:48;5.80;99.90
23801;DHT22;12081;48.614;10.226;2023-02-01T14:01:33;4.90;99.90
23801;DHT22;12081;48.614;10.226;2023-02-01T14:04:48;5.60;99.90
23801;DHT22;12081;48.614;10.226;2023-02-01T14:07:32;3.90;99.90
23801;DHT22;12081;48.614;10.226;2023-02-01T14:13:40;3.80;99.90
23801;DHT22;12081;48.614;10.226;2023-02-01T14:16:25;3.80;99.90
23801;DHT22;12081;48.614;10.226;2023-02-01T14:19:25;3.80;99.90
23801;DHT22;12081;48.614;10.226;2023-02-01T14:25:16;5.90;99.90
23801;DHT22;12081;48.614;10.226;2023-02-01T14:28:01;5.50;99.90
23801;DHT22;12081;48.614;10.226;2023-02-01T14:30:56;3.80;99.90
23801;DHT22;12081;48.614;10.226;2023-02-01T14:33:42;3.90;99.90
23801;DHT22;12081;48.614;10.226;2023-02-01T14:37:01;3.90;99.90
23801;DHT22;12081;48.614;10.226;2023-02-01T14:42:49;5.80;99.90
23801;DHT22;12081;48.614;10.226;2023-02-01T14:51:08;3.80;99.90
23801;DHT22;12081;48.614;10.226;2023-02-01T14:53:53;3.90;99.90
23801;DHT22;12081;48.614;10.226;2023-02-01T14:56:38;5.00;99.90
23801;DHT22;12081;48.614;10.226;2023-02-01T14:59:25;3.90;99.90
23801;DHT22;12081;48.614;10.226;2023-02-01T15:02:25;5.00;99.90
23801;DHT22;12081;48.614;10.226;2023-02-01T15:05:26;3.80;99.90
23801;DHT22;12081;48.614;10.226;2023-02-01T15:08:21;3.90;99.90
23801;DHT22;12081;48.614;10.226;2023-02-01T15:11:14;3.90;99.90
23801;DHT22;12081;48.614;10.226;2023-02-01T15:13:58;4.30;99.90
23801;DHT22;12081;48.614;10.226;2023-02-01T15:16:45;3.80;99.90
23801;DHT22;12081;48.614;10.226;2023-02-01T15:19:37;3.80;99.90
23801;DHT22;12081;48.614;10.226;2023-02-01T15:22:24;3.70;99.90
23801;DHT22;12081;48.614;10.226;2023-02-01T15:25:21;3.70;99.90
23801;DHT22;12081;48.614;10.226;2023-02-01T15:28:08;3.70;99.90
23801;DHT22;12081;48.614;10.226;2023-02-01T15:31:01;4.10;99.90
23801;DHT22;12081;48.614;10.226;2023-02-01T15:33:56;3.70;99.90
23801;DHT22;12081;48.614;10.226;2023-02-01T15:36:42;4.30;99.90
23801;DHT22;12081;48.614;10.226;2023-02-01T15:43:12;3.60;99.90
23801;DHT22;12081;48.614;10.226;2023-02-01T15:45:59;3.60;99.90
23801;DHT22;12081;48.614;10.226;2023-02-01T15:48:54;5.10;99.90
23801;DHT22;12081;48.614;10.226;2023-02-01T15:51:44;4.10;99.90
23801;DHT22;12081;48.614;10.226;2023-02-01T15:54:36;4.40;99.90
23801;DHT22;12081;48.614;10.226;2023-02-01T15:57:28;3.50;99.90
23801;DHT22;12081;48.614;10.226;2023-02-01T16:00:42;3.50;99.90
23801;DHT22;12081;48.614;10.226;2023-02-01T16:03:39;3.60;99.90
23801;DHT22;12081;48.614;10.226;2023-02-01T16:09:12;5.90;99.90
23801;DHT22;12081;48.614;10.226;2023-02-01T16:12:01;3.50;99.90
23801;DHT22;12081;48.614;10.226;2023-02-01T16:14:47;3.50;99.90
23801;DHT22;12081;48.614;10.226;2023-02-01T16:17:32;3.50;99.90
23801;DHT22;12081;48.614;10.226;2023-02-01T16:20:17;3.50;99.90
23801;DHT22;12081;48.614;10.226;2023-02-01T16:23:03;3.50;99.90
23801;DHT22;12081;48.614;10.226;2023-02-01T16:25:48;3.50;99.90
23801;DHT22;12081;48.614;10.226;2023-02-01T16:28:32;3.40;99.90
23801;DHT22;12081;48.614;10.226;2023-02-01T16:31:18;5.00;99.90
23801;DHT22;12081;48.614;10.226;2023-02-01T16:37:45;3.30;99.90
23801;DHT22;12081;48.614;10.226;2023-02-01T16:40:29;3.30;99.90
23801;DHT22;12081;48.614;10.226;2023-02-01T16:43:22;5.90;99.90
23801;DHT22;12081;48.614;10.226;2023-02-01T16:46:16;3.40;99.90
23801;DHT22;12081;48.614;10.226;2023-02-01T16:49:01;3.40;99.90
23801;DHT22;12081;48.614;10.226;2023-02-01T16:51:48;3.30;99.90
23801;DHT22;12081;48.614;10.226;2023-02-01T16:54:33;5.10;99.90
23801;DHT22;12081;48.614;10.226;2023-02-01T16:57:19;3.30;99.90
23801;DHT22;12081;48.614;10.226;2023-02-01T17:00:06;4.80;99.90
23801;DHT22;12081;48.614;10.226;2023-02-01T17:02:53;3.30;99.90
23801;DHT22;12081;48.614;10.226;2023-02-01T17:05:37;3.30;99.90
23801;DHT22;12081;48.614;10.226;2023-02-01T17:08:29;3.30;99.90
23801;DHT22;12081;48.614;10.226;2023-02-01T17:11:14;3.40;99.90
23801;DHT22;12081;48.614;10.226;2023-02-01T17:14:29;4.90;99.90
23801;DHT22;12081;48.614;10.226;2023-02-01T17:17:15;3.30;99.90
23801;DHT22;12081;48.614;10.226;2023-02-01T17:20:00;3.40;99.90
23801;DHT22;12081;48.614;10.226;2023-02-01T17:22:45;3.30;99.90
23801;DHT22;12081;48.614;10.226;2023-02-01T17:25:29;3.40;99.90
23801;DHT22;12081;48.614;10.226;2023-02-01T17:28:15;3.80;99.90
23801;DHT22;12081;48.614;10.226;2023-02-01T17:31:00;3.40;99.90
23801;DHT22;12081;48.614;10.226;2023-02-01T17:33:45;5.20;99.90
23801;DHT22;12081;48.614;10.226;2023-02-01T17:36:30;3.50;99.90
23801;DHT22;12081;48.614;10.226;2023-02-01T17:39:15;3.40;99.90
23801;DHT22;12081;48.614;10.226;2023-02-01T17:42:19;3.40;99.90
23801;DHT22;12081;48.614;10.226;2023-02-01T17:46:17;3.20;99.90
23801;DHT22;12081;48.614;10.226;2023-02-01T17:48:34;3.20;99.90
23801;DHT22;12081;48.614;10.226;2023-02-01T17:51:24;3.10;99.90
23801;DHT22;12081;48.614;10.226;2023-02-01T17:54:14;3.00;99.90
23801;DHT22;12081;48.614;10.226;2023-02-01T17:57:00;3.00;99.90
23801;DHT22;12081;48.614;10.226;2023-02-01T17:59:46;6.10;99.90
23801;DHT22;12081;48.614;10.226;2023-02-01T18:02:31;3.00;99.90
23801;DHT22;12081;48.614;10.226;2023-02-01T18:05:40;4.40;99.90
23801;DHT22;12081;48.614;10.226;2023-02-01T18:08:28;3.10;99.90
23801;DHT22;12081;48.614;10.226;2023-02-01T18:11:15;3.10;99.90
23801;DHT22;12081;48.614;10.226;2023-02-01T18:14:01;3.20;99.90
23801;DHT22;12081;48.614;10.226;2023-02-01T18:16:45;3.20;99.90
23801;DHT22;12081;48.614;10.226;2023-02-01T18:19:30;3.30;99.90
23801;DHT22;12081;48.614;10.226;2023-02-01T18:22:16;3.30;99.90
23801;DHT22;12081;48.614;10.226;2023-02-01T18:25:07;3.30;99.90
23801;DHT22;12081;48.614;10.226;2023-02-01T18:27:53;3.30;99.90
23801;DHT22;12081;48.614;10.226;2023-02-01T18:30:39;3.30;99.90
23801;DHT22;12081;48.614;10.226;2023-02-01T18:33:23;3.30;99.90
23801;DHT22;12081;48.614;10.226;2023-02-01T18:36:11;3.40;99.90
23801;DHT22;12081;48.614;10.226;2023-02-01T18:42:37;3.40;99.90
23801;DHT22;12081;48.614;10.226;2023-02-01T18:45:48;3.40;99.90
23801;DHT22;12081;48.614;10.226;2023-02-01T18:48:33;3.40;99.90
23801;DHT22;12081;48.614;10.226;2023-02-01T18:51:19;3.40;99.90
23801;DHT22;12081;48.614;10.226;2023-02-01T18:54:04;3.40;99.90
23801;DHT22;12081;48.614;10.226;2023-02-01T18:56:49;3.40;99.90
23801;DHT22;12081;48.614;10.226;2023-02-01T18:59:34;3.40;99.90
23801;DHT22;12081;48.614;10.226;2023-02-01T19:02:18;3.40;99.90
23801;DHT22;12081;48.614;10.226;2023-02-01T19:05:06;3.40;99.90
23801;DHT22;12081;48.614;10.226;2023-02-01T19:07:52;3.40;99.90
23801;DHT22;12081;48.614;10.226;2023-02-01T19:10:43;3.30;99.90
23801;DHT22;12081;48.614;10.226;2023-02-01T19:13:27;5.80;99.90
23801;DHT22;12081;48.614;10.226;2023-02-01T19:16:14;3.40;99.90
23801;DHT22;12081;48.614;10.226;2023-02-01T19:18:59;3.30;99.90
23801;DHT22;12081;48.614;10.226;2023-02-01T19:21:46;4.90;99.90
23801;DHT22;12081;48.614;10.226;2023-02-01T19:24:30;3.30;99.90
23801;DHT22;12081;48.614;10.226;2023-02-01T19:27:14;5.10;99.90
23801;DHT22;12081;48.614;10.226;2023-02-01T19:29:58;5.10;99.90
23801;DHT22;12081;48.614;10.226;2023-02-01T19:32:42;5.20;99.90
23801;DHT22;12081;48.614;10.226;2023-02-01T19:35:26;3.40;99.90
23801;DHT22;12081;48.614;10.226;2023-02-01T19:38:10;3.40;99.90
23801;DHT22;12081;48.614;10.226;2023-02-01T19:40:54;3.40;99.90
23801;DHT22;12081;48.614;10.226;2023-02-01T19:43:39;4.60;99.90
23801;DHT22;12081;48.614;10.226;2023-02-01T19:46:23;4.50;99.90
23801;DHT22;12081;48.614;10.226;2023-02-01T19:49:08;5.30;99.90
23801;DHT22;12081;48.614;10.226;2023-02-01T19:51:55;4.70;99.90
23801;DHT22;12081;48.614;10.226;2023-02-01T19:54:39;4.90;99.90
23801;DHT22;12081;48.614;10.226;2023-02-01T19:57:23;3.40;99.90
23801;DHT22;12081;48.614;10.226;2023-02-01T20:00:08;3.30;99.90
23801;DHT22;12081;48.614;10.226;2023-02-01T20:02:54;3.40;99.90
23801;DHT22;12081;48.614;10.226;2023-02-01T20:05:38;5.70;99.90
23801;DHT22;12081;48.614;10.226;2023-02-01T20:08:22;3.40;99.90
23801;DHT22;12081;48.614;10.226;2023-02-01T20:11:07;3.10;99.90
23801;DHT22;12081;48.614;10.226;2023-02-01T20:13:52;3.30;99.90
23801;DHT22;12081;48.614;10.226;2023-02-01T20:16:36;4.80;99.90
23801;DHT22;12081;48.614;10.226;2023-02-01T20:19:20;3.30;99.90
23801;DHT22;12081;48.614;10.226;2023-02-01T20:22:04;4.60;99.90
23801;DHT22;12081;48.614;10.226;2023-02-01T20:24:48;3.30;99.90
23801;DHT22;12081;48.614;10.226;2023-02-01T20:27:32;3.40;99.90
23801;DHT22;12081;48.614;10.226;2023-02-01T20:30:18;4.90;99.90
23801;DHT22;12081;48.614;10.226;2023-02-01T20:33:05;3.30;99.90
23801;DHT22;12081;48.614;10.226;2023-02-01T20:35:49;3.30;99.90
23801;DHT22;12081;48.614;10.226;2023-02-01T20:38:33;5.70;99.90
23801;DHT22;12081;48.614;10.226;2023-02-01T20:41:19;3.30;99.90
23801;DHT22;12081;48.614;10.226;2023-02-01T20:44:04;3.40;99.90
23801;DHT22;12081;48.614;10.226;2023-02-01T20:46:48;3.40;99.90
23801;DHT22;12081;48.614;10.226;2023-02-01T20:49:35;4.40;99.90
23801;DHT22;12081;48.614;10.226;2023-02-01T20:52:19;3.50;99.90
23801;DHT22;12081;48.614;10.226;2023-02-01T20:55:03;3.40;99.90
23801;DHT22;12081;48.614;10.226;2023-02-01T20:57:48;3.40;99.90
23801;DHT22;12081;48.614;10.226;2023-02-01T21:00:32;3.30;99.90
23801;DHT22;12081;48.614;10.226;2023-02-01T21:03:16;3.50;99.90
23801;DHT22;12081;48.614;10.226;2023-02-01T21:06:01;3.40;99.90
23801;DHT22;12081;48.614;10.226;2023-02-01T21:08:53;5.40;99.90
23801;DHT22;12081;48.614;10.226;2023-02-01T21:11:37;3.50;99.90
23801;DHT22;12081;48.614;10.226;2023-02-01T21:14:21;3.50;99.90
23801;DHT22;12081;48.614;10.226;2023-02-01T21:17:05;3.50;99.90
23801;DHT22;12081;48.614;10.226;2023-02-01T21:19:50;3.50;99.90
23801;DHT22;12081;48.614;10.226;2023-02-01T21:22:34;4.20;99.90
23801;DHT22;12081;48.614;10.226;2023-02-01T21:25:19;3.50;99.90
23801;DHT22;12081;48.614;10.226;2023-02-01T21:28:04;3.50;99.90
23801;DHT22;12081;48.614;10.226;2023-02-01T21:30:48;3.50;99.90
23801;DHT22;12081;48.614;10.226;2023-02-01T21:33:34;3.50;99.90
23801;DHT22;12081;48.614;10.226;2023-02-01T21:36:21;3.50;99.90
23801;DHT22;12081;48.614;10.226;2023-02-01T21:39:07;3.60;99.90
23801;DHT22;12081;48.614;10.226;2023-02-01T21:41:54;3.60;99.90
23801;DHT22;12081;48.614;10.226;2023-02-01T21:44:57;4.00;99.90
23801;DHT22;12081;48.614;10.226;2023-02-01T21:47:43;3.60;99.90
23801;DHT22;12081;48.614;10.226;2023-02-01T21:50:28;3.60;99.90
23801;DHT22;12081;48.614;10.226;2023-02-01T21:53:12;5.90;99.90
23801;DHT22;12081;48.614;10.226;2023-02-01T21:55:57;5.00;99.90
23801;DHT22;12081;48.614;10.226;2023-02-01T21:58:42;3.50;99.90
23801;DHT22;12081;48.614;10.226;2023-02-01T22:01:26;5.30;99.90
23801;DHT22;12081;48.614;10.226;2023-02-01T22:04:11;4.10;99.90
23801;DHT22;12081;48.614;10.226;2023-02-01T22:06:56;3.30;99.90
23801;DHT22;12081;48.614;10.226;2023-02-01T22:09:41;3.60;99.90
23801;DHT22;12081;48.614;10.226;2023-02-01T22:12:25;3.20;99.90
23801;DHT22;12081;48.614;10.226;2023-02-01T22:15:10;3.20;99.90
23801;DHT22;12081;48.614;10.226;2023-02-01T22:17:55;3.10;99.90
23801;DHT22;12081;48.614;10.226;2023-02-01T22:20:39;3.10;99.90
23801;DHT22;12081;48.614;10.226;2023-02-01T22:23:24;3.10;99.90
23801;DHT22;12081;48.614;10.226;2023-02-01T22:26:11;3.10;99.90
23801;DHT22;12081;48.614;10.226;2023-02-01T22:28:56;3.10;99.90
23801;DHT22;12081;48.614;10.226;2023-02-01T22:31:41;3.00;99.90
23801;DHT22;12081;48.614;10.226;2023-02-01T22:34:26;3.00;99.90
23801;DHT22;12081;48.614;10.226;2023-02-01T22:37:11;2.90;99.90
23801;DHT22;12081;48.614;10.226;2023-02-01T22:39:55;3.00;99.90
23801;DHT22;12081;48.614;10.226;2023-02-01T22:42:41;2.90;99.90
23801;DHT22;12081;48.614;10.226;2023-02-01T22:45:25;2.90;99.90
23801;DHT22;12081;48.614;10.226;2023-02-01T22:48:10;2.90;99.90
23801;DHT22;12081;48.614;10.226;2023-02-01T22:50:58;2.90;99.90
23801;DHT22;12081;48.614;10.226;2023-02-01T22:53:43;2.90;99.90
23801;DHT22;12081;48.614;10.226;2023-02-01T22:56:31;2.90;99.90
23801;DHT22;12081;48.614;10.226;2023-02-01T22:59:16;2.90;99.90
23801;DHT22;12081;48.614;10.226;2023-02-01T23:02:01;2.90;99.90
23801;DHT22;12081;48.614;10.226;2023-02-01T23:35:42;2.90;99.90
23801;DHT22;12081;48.614;10.226;2023-02-01T23:38:36;2.90;99.90
23801;DHT22;12081;48.614;10.226;2023-02-01T23:41:23;4.10;99.90
23801;DHT22;12081;48.614;10.226;2023-02-01T23:44:10;3.50;99.90
23801;DHT22;12081;48.614;10.226;2023-02-01T23:46:56;2.80;99.90
23801;DHT22;12081;48.614;10.226;2023-02-01T23:49:41;3.10;99.90
23801;DHT22;12081;48.614;10.226;2023-02-01T23:52:25;2.70;99.90
23801;DHT22;12081;48.614;10.226;2023-02-01T23:55:10;2.80;99.90
23801;DHT22;12081;48.614;10.226;2023-02-01T23:57:55;2.80;99.90
